Map

Track Data

SID SEASON NUMBER BASIN SUBBASIN NAME ISO_TIME NATURE LAT LON WMO_WIND WMO_PRES WMO_AGENCY TRACK_TYPE DIST2LAND LANDFALL IFLAG USA_AGENCY USA_ATCF_ID USA_LAT USA_LON USA_RECORD USA_STATUS USA_WIND USA_PRES USA_SSHS USA_R34_NE USA_R34_SE USA_R34_SW USA_R34_NW USA_R50_NE USA_R50_SE USA_R50_SW USA_R50_NW USA_R64_NE USA_R64_SE USA_R64_SW USA_R64_NW USA_POCI USA_ROCI USA_RMW USA_EYE TOKYO_LAT TOKYO_LON TOKYO_GRADE TOKYO_WIND TOKYO_PRES TOKYO_R50_DIR TOKYO_R50_LONG TOKYO_R50_SHORT TOKYO_R30_DIR TOKYO_R30_LONG TOKYO_R30_SHORT TOKYO_LAND CMA_LAT CMA_LON CMA_CAT CMA_WIND CMA_PRES HKO_LAT HKO_LON HKO_CAT HKO_WIND HKO_PRES NEWDELHI_LAT NEWDELHI_LON NEWDELHI_GRADE NEWDELHI_WIND NEWDELHI_PRES NEWDELHI_CI NEWDELHI_DP NEWDELHI_POCI REUNION_LAT REUNION_LON REUNION_TYPE REUNION_WIND REUNION_PRES REUNION_TNUM REUNION_CI REUNION_RMW REUNION_R34_NE REUNION_R34_SE REUNION_R34_SW REUNION_R34_NW REUNION_R50_NE REUNION_R50_SE REUNION_R50_SW REUNION_R50_NW REUNION_R64_NE REUNION_R64_SE REUNION_R64_SW REUNION_R64_NW BOM_LAT BOM_LON BOM_TYPE BOM_WIND BOM_PRES BOM_TNUM BOM_CI BOM_RMW BOM_R34_NE BOM_R34_SE BOM_R34_SW BOM_R34_NW BOM_R50_NE BOM_R50_SE BOM_R50_SW BOM_R50_NW BOM_R64_NE BOM_R64_SE BOM_R64_SW BOM_R64_NW BOM_ROCI BOM_POCI BOM_EYE BOM_POS_METHOD BOM_PRES_METHOD NADI_LAT NADI_LON NADI_CAT NADI_WIND NADI_PRES WELLINGTON_LAT WELLINGTON_LON WELLINGTON_WIND WELLINGTON_PRES DS824_LAT DS824_LON DS824_STAGE DS824_WIND DS824_PRES TD9636_LAT TD9636_LON TD9636_STAGE TD9636_WIND TD9636_PRES TD9635_LAT TD9635_LON TD9635_WIND TD9635_PRES TD9635_ROCI NEUMANN_LAT NEUMANN_LON NEUMANN_CLASS NEUMANN_WIND NEUMANN_PRES MLC_LAT MLC_LON MLC_CLASS MLC_WIND MLC_PRES USA_GUST BOM_GUST BOM_GUST_PER REUNION_GUST REUNION_GUST_PER USA_SEAHGT USA_SEARAD_NE USA_SEARAD_SE USA_SEARAD_SW USA_SEARAD_NW STORM_SPEED STORM_DIR
1960364S07096 1961 99 SI WA NOT_NAMED 1960-12-28 16:00:00 NR -7.00000 96.0000 spur-merge 675 675 __________O___ -1 -7.00000 96.0000 7 0 0
1960364S07096 1961 99 SI WA NOT_NAMED 1960-12-28 18:00:00 TS -6.99880 96.0039 spur-merge 675 675 O________OP___ jtwc_sh SH071961 -7.00000 96.0000 -1 -7.00000 96.0000 TC 25 -6.99701 96.0097 7 0 0
1960364S07096 1961 99 SI WA NOT_NAMED 1960-12-28 21:00:00 TS -6.97579 96.0277 spur-merge 675 675 P________PP___ SH071961 -6.95749 96.0375 -1 -6.95749 96.0375 TC 25 -7.01240 96.0082 7 1 0
1960364S07096 1961 99 SI WA NOT_NAMED 1960-12-29 00:00:00 TS -7.04397 95.9758 spur-merge 675 685 O________OP_O_ jtwc_sh SH071961 -7.00000 96.0000 -1 -7.00000 96.0000 TC 25 -7.07889 95.9651 7 -7.30000 95.8000 TC 20 2 217
1960364S07096 1961 99 SI WA NOT_NAMED 1960-12-29 01:00:00 TS -7.09771 95.9289 1000 bom spur-merge 690 690 P_____O__PP_P_ SH071961 -7.04692 95.9588 -1 -7.00000 96.0000 1000 -7.04692 95.9588 TC 25 -7.11770 95.9372 7 -7.41130 95.6968 TC 20 6 219
1960364S07096 1961 99 SI WA NOT_NAMED 1960-12-29 03:00:00 TS -7.26220 95.7954 spur-merge 715 715 P_____P__PP_P_ SH071961 -7.19001 95.8375 -1 -7.20247 95.8766 1000 -7.19001 95.8375 TC 25 -7.22713 95.8556 7 -7.63755 95.4926 TC 20 7 218
1960364S07096 1961 99 SI WA NOT_NAMED 1960-12-29 04:00:00 TS -7.36988 95.7098 1000 bom spur-merge 730 730 P_____O__PO_P_ SH071961 -7.28248 95.7629 -1 -7.30000 95.8000 1000 -7.28248 95.7629 TC 25 -7.30000 95.8000 7 -7.75436 95.3926 TC 20 8 218
1960364S07096 1961 99 SI WA NOT_NAMED 1960-12-29 06:00:00 TS -7.57621 95.5461 spur-merge 761 761 O_____P__OP_O_ jtwc_sh SH071961 -7.50000 95.6000 -1 -7.49210 95.6054 1000 -7.50000 95.6000 TC 25 -7.48421 95.6578 7 -8.00000 95.2000 TC 20 8 217
1960364S07096 1961 99 SI WA NOT_NAMED 1960-12-29 07:00:00 TS -7.69142 95.4632 1000 bom spur-merge 770 770 P_____O__PP_P_ SH071961 -7.61883 95.5224 -1 -7.60000 95.5000 1000 -7.61883 95.5224 TC 25 -7.59298 95.5738 7 -8.13023 95.1083 TC 20 9 214
1960364S07096 1961 99 SI WA NOT_NAMED 1960-12-29 09:00:00 TS -7.95077 95.2914 spur-merge 810 810 P_____P__PP_P_ SH071961 -7.88500 95.3575 -1 -7.86055 95.2974 1000 -7.88500 95.3575 TC 25 -7.83626 95.3874 7 -8.39998 94.9350 TC 22 9 213
1960364S07096 1961 99 SI WA NOT_NAMED 1960-12-29 10:00:00 TS -8.08519 95.2064 1000 bom spur-merge 826 826 P_____O__PP_P_ SH071961 -8.02494 95.2721 -1 -8.00000 95.2000 1000 -8.02494 95.2721 TC 25 -7.96776 95.2880 7 -8.53579 94.8533 TC 23 10 212
1960364S07096 1961 99 SI WA NOT_NAMED 1960-12-29 12:00:00 TS -8.35573 95.0325 spur-merge 866 866 O_____P__OP_O_ jtwc_sh SH071961 -8.30000 95.1000 -1 -8.26665 95.0166 1000 -8.30000 95.1000 TC 25 -8.24295 95.0843 7 -8.80000 94.7000 TC 25 9 213
1960364S07096 1961 99 SI WA NOT_NAMED 1960-12-29 15:00:00 TS -8.73152 94.7814 spur-merge 906 916 P_____P__PP_P_ SH071961 -8.64998 94.8499 -1 -8.66666 94.7729 1000 -8.64998 94.8499 TC 25 -8.66366 94.7894 7 -9.15748 94.4850 TC 25 9 213
1960364S07096 1961 99 SI WA NOT_NAMED 1960-12-29 16:00:00 TS -8.85496 94.7006 1000 bom spur-merge 931 931 P_____O__PO_P_ SH071961 -8.76418 94.7666 -1 -8.80000 94.7000 1000 -8.76418 94.7666 TC 25 -8.80000 94.7000 7 -9.27209 94.4200 TC 25 9 212
1960364S07096 1961 99 SI WA NOT_NAMED 1960-12-29 18:00:00 TS -9.10231 94.5451 spur-merge 961 961 O_____P__OP_O_ jtwc_sh SH071961 -9.00000 94.6000 -1 -9.06665 94.5732 1000 -9.00000 94.6000 TC 25 -9.04949 94.5421 7 -9.50000 94.3000 TC 25 9 212
1960364S07096 1961 99 SI WA NOT_NAMED 1960-12-29 19:00:00 TS -9.23380 94.4610 1000 bom spur-merge 971 971 P_____O__PP_P_ SH071961 -9.13288 94.5062 -1 -9.20000 94.5000 1000 -9.13288 94.5062 TC 25 -9.17337 94.4678 7 -9.62191 94.2364 TC 25 9 213
1960364S07096 1961 99 SI WA NOT_NAMED 1960-12-29 21:00:00 TS -9.49949 94.2894 spur-merge 1011 1011 P_____P__PP_P_ SH071961 -9.40753 94.3201 -1 -9.46668 94.2975 1000 -9.40753 94.3201 TC 25 -9.41769 94.3302 7 -9.86500 94.1200 TC 25 9 212
1960364S07096 1961 99 SI WA NOT_NAMED 1960-12-29 22:00:00 TS -9.62994 94.2110 1000 bom spur-merge 1026 1026 P_____O__PP_P_ SH071961 -9.54373 94.2351 -1 -9.60000 94.2000 1000 -9.54373 94.2351 TC 25 -9.53743 94.2676 7 -9.98247 94.0709 TC 25 9 208
1960364S07096 1961 99 SI WA NOT_NAMED 1960-12-30 00:00:00 TS -9.87897 94.0860 spur-merge 1061 1061 O_____P__OP_O_ jtwc_sh SH071961 -9.80000 94.1000 -1 -9.88247 94.0454 1000 -9.80000 94.1000 TC 25 -9.77032 94.1564 7 -10.2000 94.0000 TC 25 8 204
1960364S07096 1961 99 SI WA NOT_NAMED 1960-12-30 01:00:00 TS -9.98867 94.0461 1000 bom spur-merge 1076 1076 P_____O__PP_P_ SH071961 -9.91402 94.0578 -1 -10.0000 94.0000 1000 -9.91402 94.0578 TC 25 -9.88278 94.1085 7 -10.2947 93.9828 TC 25 6 195
1960364S07096 1961 99 SI WA NOT_NAMED 1960-12-30 03:00:00 TS -10.1773 94.0066 spur-merge 1095 1095 P_____P__PP_P_ SH071961 -10.1225 94.0124 -1 -10.1363 93.9891 1000 -10.1225 94.0124 TC 25 -10.0980 94.0300 7 -10.4650 93.9774 TC 27 6 190
1960364S07096 1961 99 SI WA NOT_NAMED 1960-12-30 04:00:00 TS -10.2646 93.9997 1000 bom spur-merge 1105 1105 P_____O__PO_P_ SH071961 -10.2187 94.0036 -1 -10.2000 94.0000 1000 -10.2187 94.0036 TC 25 -10.2000 94.0000 7 -10.5442 93.9837 TC 28 5 184
1960364S07096 1961 99 SI WA NOT_NAMED 1960-12-30 06:00:00 TS -10.4421 93.9939 spur-merge 1115 1125 O_____P__OP_O_ jtwc_sh SH071961 -10.4000 94.0000 -1 -10.4025 94.0000 1000 -10.4000 94.0000 TC 25 -10.3921 93.9572 7 -10.7000 94.0000 TC 30 5 0
1960364S07096 1961 99 SI WA NOT_NAMED 1960-12-30 07:00:00 TS -10.5309 93.9885 1000 bom spur-merge 1125 1125 P_____O__PP_P_ SH071961 -10.4890 93.9943 -1 -10.5000 94.0000 1000 -10.4890 93.9943 TC 25 -10.4827 93.9454 7 -10.7833 94.0000 TC 30 5 184
1960364S07096 1961 99 SI WA NOT_NAMED 1960-12-30 09:00:00 TS -10.6949 93.9851 spur-merge 1144 1144 P_____P__PP_P_ SH071961 -10.6575 93.9925 -1 -10.6369 94.0000 1000 -10.6575 93.9925 TC 25 -10.6551 93.9373 7 -10.9500 94.0000 TC 30 5 184
1960364S07096 1961 99 SI WA NOT_NAMED 1960-12-30 10:00:00 TS -10.7743 93.9861 1000 bom spur-merge 1154 1154 P_____O__PP_P_ SH071961 -10.7388 93.9946 -1 -10.7000 94.0000 1000 -10.7388 93.9946 TC 25 -10.7374 93.9397 7 -11.0333 94.0000 TC 30 5 177
1960364S07096 1961 99 SI WA NOT_NAMED 1960-12-30 12:00:00 TS -10.9352 93.9907 spur-merge 1164 1164 O_____P__OP_O_ jtwc_sh SH071961 -10.9000 94.0000 -1 -10.8500 94.0000 1000 -10.9000 94.0000 TC 25 -10.8962 93.9539 7 -11.2000 94.0000 TC 30 5 179
1960364S07096 1961 99 SI WA NOT_NAMED 1960-12-30 15:00:00 TS -11.1873 93.9959 spur-merge 1194 1194 P_____P__PP_P_ SH071961 -11.1575 94.0000 -1 -11.1062 94.0000 1000 -11.1575 94.0000 TC 25 -11.1249 93.9880 7 -11.4575 93.9925 TC 30 5 0
1960364S07096 1961 99 SI WA NOT_NAMED 1960-12-30 16:00:00 TS -11.2712 93.9981 1000 bom spur-merge 1204 1204 P_____O__PO_P_ SH071961 -11.2412 94.0000 -1 -11.2000 94.0000 1000 -11.2412 94.0000 TC 25 -11.2000 94.0000 7 -11.5412 93.9921 TC 30 5 178
1960364S07096 1961 99 SI WA NOT_NAMED 1960-12-30 18:00:00 TS -11.4374 93.9997 spur-merge 1214 1223 O_____P__OP_O_ jtwc_sh SH071961 -11.4000 94.0000 -1 -11.3982 94.0000 1000 -11.4000 94.0000 TC 25 -11.3636 93.9979 7 -11.7000 94.0000 TC 30 5 183
1960364S07096 1961 99 SI WA NOT_NAMED 1960-12-30 19:00:00 TS -11.5180 93.9973 1000 bom spur-merge 1223 1223 P_____O__PP_P_ SH071961 -11.4724 93.9948 -1 -11.5000 94.0000 1000 -11.4724 93.9948 TC 25 -11.4443 93.9976 7 -11.7750 94.0057 TC 30 5 186
1960364S07096 1961 99 SI WA NOT_NAMED 1960-12-30 21:00:00 TS -11.6735 93.9953 spur-merge 1243 1243 P_____P__PP_P_ SH071961 -11.6075 93.9850 -1 -11.7079 94.0000 1000 -11.6075 93.9850 TC 25 -11.6028 94.0007 7 -11.9150 94.0275 TC 30 5 0
1960364S07096 1961 99 SI WA NOT_NAMED 1960-12-30 22:00:00 TS -11.7466 93.9981 1000 bom spur-merge 1243 1243 P_____O__PP_P_ SH071961 -11.6721 93.9842 -1 -11.8000 94.0000 1000 -11.6721 93.9842 TC 25 -11.6799 94.0051 7 -11.9800 94.0454 TC 30 4 176
1960364S07096 1961 99 SI WA NOT_NAMED 1960-12-31 00:00:00 TS -11.8822 94.0163 spur-merge 1263 1263 O_____P__OP_O_ jtwc_sh SH071961 -11.8000 94.0000 -1 -11.9467 93.9921 1000 -11.8000 94.0000 TC 25 -11.8291 94.0218 7 -12.1000 94.1000 TC 30 4 167
1960364S07096 1961 99 SI WA NOT_NAMED 1960-12-31 01:00:00 TS -11.9466 94.0359 1000 bom spur-merge 1263 1263 P_____O__PP_P_ SH071961 -11.8693 94.0193 -1 -12.0000 94.0000 1000 -11.8693 94.0193 TC 25 -11.9006 94.0351 7 -12.1557 94.1386 TC 30 4 157
1960364S07096 1961 99 SI WA NOT_NAMED 1960-12-31 03:00:00 TS -12.0638 94.0962 spur-merge 1279 1279 P_____P__PP_P_ SH071961 -12.0075 94.0775 -1 -12.0642 94.0533 1000 -12.0075 94.0775 TC 25 -12.0363 94.0737 7 -12.2575 94.2350 TC 30 4 151
1960364S07096 1961 99 SI WA NOT_NAMED 1960-12-31 04:00:00 TS -12.1202 94.1356 1000 bom spur-merge 1279 1272 P_____O__PO_P_ SH071961 -12.0746 94.1146 -1 -12.1000 94.1000 1000 -12.0746 94.1146 TC 25 -12.1000 94.1000 7 -12.3054 94.2891 TC 30 4 143
1960364S07096 1961 99 SI WA NOT_NAMED 1960-12-31 06:00:00 TS -12.2365 94.2304 spur-merge 1280 1280 O_____P__OP_O_ jtwc_sh SH071961 -12.2000 94.2000 -1 -12.2358 94.2358 1000 -12.2000 94.2000 TC 25 -12.2198 94.1766 7 -12.4000 94.4000 TC 30 4 141
1960364S07096 1961 99 SI WA NOT_NAMED 1960-12-31 07:00:00 TS -12.2922 94.2786 1000 bom spur-merge 1280 1280 P_____O__PP_P_ SH071961 -12.2557 94.2443 -1 -12.3000 94.3000 1000 -12.2557 94.2443 TC 25 -12.2757 94.2221 7 -12.4526 94.4526 TC 30 4 137
1960364S07096 1961 99 SI WA NOT_NAMED 1960-12-31 09:00:00 TS -12.3904 94.3739 spur-merge 1281 1281 P_____P__PP_P_ SH071961 -12.3575 94.3425 -1 -12.3718 94.3719 1000 -12.3575 94.3425 TC 25 -12.3806 94.3233 7 -12.5575 94.5575 TC 30 4 136
1960364S07096 1961 99 SI WA NOT_NAMED 1960-12-31 10:00:00 TS -12.4363 94.4224 1000 bom spur-merge 1281 1281 P_____O__PP_P_ SH071961 -12.4054 94.3946 -1 -12.4000 94.4000 1000 -12.4054 94.3946 TC 25 -12.4301 94.3774 7 -12.6079 94.6079 TC 30 3 202
1960364S07096 1961 99 SI WA NOT_NAMED 1960-12-31 12:00:00 TS -12.5277 94.3220 spur-merge 1296 1296 O_____P__OP_O_ jtwc_sh SH071961 -12.5000 94.5000 -1 -12.4831 94.4831 1000 -12.5000 94.5000 TC 25 -12.5243 94.4886 7 -12.7000 94.7000 TC 30 3 214
1960364S07096 1961 99 SI WA NOT_NAMED 1960-12-31 15:00:00 TS -12.6702 94.2609 spur-merge 1313 1320 P_____P__PP_P_ SH071961 -12.6575 94.6575 -1 -12.6239 94.6238 1000 -12.6575 94.6575 TC 25 -12.6571 94.6505 7 -12.8000 94.8075 TC 30 4 225
1960364S07096 1961 99 SI WA NOT_NAMED 1960-12-31 16:00:00 TS -12.7167 94.1261 spur-merge 1327 1327 P_____P__PO_P_ SH071961 -12.7079 94.7079 -1 -12.6711 94.6711 1000 -12.7079 94.7079 TC 25 -12.7000 94.7000 7 -12.8309 94.8388 TC 30 6 242
1960364S07096 1961 99 SI WA NOT_NAMED 1960-12-31 18:00:00 TS -12.8153 93.9801 spur-merge 1343 1343 O_____P__OP_O_ jtwc_sh SH071961 -12.8000 94.8000 -1 -12.7602 94.7602 1000 -12.8000 94.8000 TC 25 -12.7759 94.7730 7 -12.9000 94.9000 TC 30 4 225
1960364S07096 1961 99 SI WA NOT_NAMED 1960-12-31 19:00:00 TS -12.8619 93.9728 1000 bom spur-merge 1351 1351 P_____O__PP_P_ SH071961 -12.8338 94.8391 -1 -12.8000 94.8000 1000 -12.8338 94.8391 TC 25 -12.8118 94.8064 7 -12.9390 94.9307 TC 30 3 157
1960364S07096 1961 99 SI WA NOT_NAMED 1960-12-31 21:00:00 TS -12.9414 94.0417 spur-merge 1351 1351 P_____P__PP_P_ SH071961 -12.8925 94.9076 -1 -12.8675 94.8676 1000 -12.8925 94.9076 TC 25 -12.8831 94.8696 7 -13.0275 94.9925 TC 30 3 140
1960364S07096 1961 99 SI WA NOT_NAMED 1960-12-31 22:00:00 TS -12.9831 94.0776 1000 bom spur-merge 1352 1345 P_____O__PP_P_ SH071961 -12.9230 94.9388 -1 -12.9000 94.9000 1000 -12.9230 94.9388 TC 25 -12.9199 94.9003 7 -13.0788 95.0255 TC 30 4 123
1960364S07096 1961 99 SI WA NOT_NAMED 1961-01-01 00:00:00 TS -13.0634 94.2337 spur-merge 1353 1346 O_____P__OP_O_ jtwc_sh SH071961 -13.0000 95.0000 -1 -12.9588 94.9667 1000 -13.0000 95.0000 TC 25 -12.9992 94.9620 7 -13.2000 95.1000 TC 30 5 118
1960364S07096 1961 99 SI WA NOT_NAMED 1961-01-01 01:00:00 TS -13.1107 94.3208 1000 bom spur-merge 1346 1339 P_____O__PP_P_ SH071961 -13.0526 95.0307 -1 -13.0000 95.0000 1000 -13.0526 95.0307 TC 25 -13.0431 94.9940 7 -13.2719 95.1443 TC 29 6 120
1960364S07096 1961 99 SI WA NOT_NAMED 1961-01-01 03:00:00 TS -13.2174 94.5115 spur-merge 1340 1333 P_____P__PP_P_ SH071961 -13.1775 95.0925 -1 -13.1200 95.0588 1000 -13.1775 95.0925 TC 25 -13.1428 95.0625 7 -13.4350 95.2425 TC 27 7 120
1960364S07096 1961 99 SI WA NOT_NAMED 1961-01-01 04:00:00 TS -13.2759 94.6145 1000 bom spur-merge 1342 1335 P_____O__PO_P_ SH071961 -13.2479 95.1255 -1 -13.2000 95.1000 1000 -13.2479 95.1255 TC 25 -13.2000 95.1000 7 -13.5225 95.2946 TC 26 7 120
1960364S07096 1961 99 SI WA NOT_NAMED 1961-01-01 06:00:00 TS -13.4008 94.8342 spur-merge 1336 1328 O_____P__OP_O_ jtwc_sh SH071961 -13.4000 95.2000 -1 -13.4025 95.2358 1000 -13.4000 95.2000 TC 25 -13.3381 95.1911 7 -13.7000 95.4000 TC 25 7 120
1960364S07096 1961 99 SI WA NOT_NAMED 1961-01-01 07:00:00 TS -13.4610 94.9453 1000 bom spur-merge 1337 1322 P_____O__PP_P_ SH071961 -13.4776 95.2443 -1 -13.5000 95.3000 1000 -13.4776 95.2443 TC 25 -13.4141 95.2396 7 -13.7833 95.4526 TC 25 7 119
1960364S07096 1961 99 SI WA NOT_NAMED 1961-01-01 09:00:00 TS -13.5777 95.1637 spur-merge 1324 1317 P_____P__PP_P_ SH071961 -13.6425 95.3425 -1 -13.6377 95.3726 1000 -13.6425 95.3425 TC 25 -13.5769 95.3406 7 -13.9500 95.5575 TC 25 7 119
1960364S07096 1961 99 SI WA NOT_NAMED 1961-01-01 10:00:00 TS -13.6371 95.2708 1000 bom spur-merge 1317 1317 P_____O__PP_P_ SH071961 -13.7279 95.3946 -1 -13.7000 95.4000 1000 -13.7279 95.3946 TC 25 -13.6625 95.3924 7 -14.0333 95.6079 TC 25 7 122
1960364S07096 1961 99 SI WA NOT_NAMED 1961-01-01 12:00:00 TS -13.7652 95.4792 spur-merge 1319 1306 O_____P__OP_O_ jtwc_sh SH071961 -13.9000 95.5000 -1 -13.8648 95.4771 1000 -13.9000 95.5000 TC 25 -13.8395 95.4969 7 -14.2000 95.7000 TC 25 7 124
1960364S07096 1961 99 SI WA NOT_NAMED 1961-01-01 15:00:00 TS -13.9713 95.7727 spur-merge 1306 1306 P_____P__PP_P_ SH071961 -14.1500 95.6575 -1 -14.1503 95.6055 1000 -14.1500 95.6575 TC 25 -14.1105 95.6509 7 -14.4500 95.8001 TC 25 7 127
1960364S07096 1961 99 SI WA NOT_NAMED 1961-01-01 16:00:00 TS -14.0435 95.8638 spur-merge 1298 1296 P_____P__PO_P_ SH071961 -14.2333 95.7079 -1 -14.2500 95.6499 1000 -14.2333 95.7079 TC 25 -14.2000 95.7000 7 -14.5333 95.8309 TC 25 7 131
1960364S07096 1961 99 SI WA NOT_NAMED 1961-01-01 18:00:00 TS -14.1915 96.0292 spur-merge 1303 1293 O_____P__OP_O_ jtwc_sh SH071961 -14.4000 95.8000 -1 -14.4482 95.7382 1000 -14.4000 95.8000 TC 25 -14.3666 95.7761 7 -14.7000 95.9000 TC 25 6 136
1960364S07096 1961 99 SI WA NOT_NAMED 1961-01-01 21:00:00 TS -14.4217 96.2360 spur-merge 1300 1292 P_____P__PP_P_ SH071961 -14.6500 95.9001 -1 -14.7211 95.8626 1000 -14.6500 95.9001 TC 25 -14.6165 95.8836 7 -14.9500 96.0276 TC 25 6 140
1960364S07096 1961 99 SI WA NOT_NAMED 1961-01-01 22:00:00 TS -14.5006 96.2957 1000 bom spur-merge 1299 1299 P_____O__PP_P_ SH071961 -14.7333 95.9309 -1 -14.8000 95.9000 1000 -14.7333 95.9309 TC 25 -14.6998 95.9204 7 -15.0333 96.0788 TC 25 6 146
1960364S07096 1961 99 SI WA NOT_NAMED 1961-01-02 00:00:00 TS -14.6601 96.4058 spur-merge 1306 1298 O_____P__OP_O_ jtwc_sh SH071961 -14.9000 96.0000 -1 -14.9349 95.9585 1000 -14.9000 96.0000 TC 25 -14.8665 95.9997 7 -15.2000 96.2000 TC 25 6 146
1960364S07096 1961 99 SI WA NOT_NAMED 1961-01-02 01:00:00 TS -14.7405 96.4607 1000 bom spur-merge 1298 1298 P_____O__PP_P_ SH071961 -14.9833 96.0391 -1 -15.0000 96.0000 1000 -14.9833 96.0391 TC 25 -14.9498 96.0435 7 -15.2833 96.2719 TC 24 6 147
1960364S07096 1961 99 SI WA NOT_NAMED 1961-01-02 03:00:00 TS -14.9049 96.5683 spur-merge 1305 1305 P_____P__PP_P_ SH071961 -15.1500 96.1276 -1 -15.1254 96.1200 1000 -15.1500 96.1276 TC 25 -15.1166 96.1429 7 -15.4500 96.4350 TC 22 6 148
1960364S07096 1961 99 SI WA NOT_NAMED 1961-01-02 04:00:00 TS -14.9904 96.6229 1000 bom spur-merge 1313 1305 P_____O__PO_P_ SH071961 -15.2333 96.1788 -1 -15.2000 96.2000 1000 -15.2333 96.1788 TC 25 -15.2000 96.2000 7 -15.5333 96.5225 TC 21 6 148
1960364S07096 1961 99 SI WA NOT_NAMED 1961-01-02 06:00:00 TS -15.1701 96.7383 spur-merge 1321 1313 O_____P__OP_O_ jtwc_sh SH071961 -15.4000 96.3000 -1 -15.4025 96.4024 1000 -15.4000 96.3000 TC 25 -15.3668 96.3307 7 -15.7000 96.7000 TC 20 6 147
1960364S07096 1961 99 SI WA NOT_NAMED 1961-01-02 07:00:00 TS -15.2611 96.7992 1000 bom spur-merge 1321 1313 P_____O__PP_P_ SH071961 -15.4834 96.3714 -1 -15.5000 96.5000 1000 -15.4834 96.3714 TC 25 -15.4503 96.4036 7 -15.7833 96.7867 TC 20 6 139
1960364S07096 1961 99 SI WA NOT_NAMED 1961-01-02 09:00:00 TS -15.4082 96.9497 spur-merge 1321 1314 P_____P__PP_P_ SH071961 -15.6501 96.5323 -1 -15.6369 96.6369 1000 -15.6501 96.5323 TC 25 -15.6171 96.5621 7 -15.9500 96.9549 TC 20 6 130
1960364S07096 1961 99 SI WA NOT_NAMED 1961-01-02 10:00:00 TS -15.4599 97.0430 1000 bom spur-merge 1322 1307 P_____O__PP_P_ SH071961 -15.7334 96.6194 -1 -15.7000 96.7000 1000 -15.7334 96.6194 TC 25 -15.7004 96.6467 7 -16.0334 97.0372 TC 20 6 126
1960364S07096 1961 99 SI WA NOT_NAMED 1961-01-02 12:00:00 TS -15.5889 97.2074 spur-merge 1316 1308 O_____P__OP_O_ jtwc_sh SH071961 -15.9000 96.8000 -1 -15.8500 96.8500 1000 -15.9000 96.8000 TC 25 -15.8671 96.8244 7 -16.2000 97.2000 TC 20 6 133
1960364S07096 1961 99 SI WA NOT_NAMED 1961-01-02 15:00:00 TS -15.7912 97.4076 spur-merge 1318 1318 ______P___P___ SH071961 -1 -16.1062 97.1063 1000 TC -16.1168 97.1048 7 TC 5 139
1960364S07096 1961 99 SI WA NOT_NAMED 1961-01-02 16:00:00 TS -15.8640 97.4567 1000 bom spur-merge 1320 1320 ______O___O___ SH071961 -1 -16.2000 97.2000 1000 TC -16.2000 97.2000 7 TC 6 149
1960364S07096 1961 99 SI WA NOT_NAMED 1961-01-02 18:00:00 TS -16.0314 97.5583 spur-merge 1321 1321 ______P_______ -1 -16.3982 97.3982 1000 7 6 152
1960364S07096 1961 99 SI WA NOT_NAMED 1961-01-02 19:00:00 TS -16.1148 97.5987 1000 bom spur-merge 1330 1330 ______O_______ -1 -16.5000 97.5000 1000 7 7 155
1960364S07096 1961 99 SI WA NOT_NAMED 1961-01-02 21:00:00 TS -16.3491 97.7108 spur-merge 1341 1343 ______P_______ -1 -16.7079 97.7079 1000 7 8 155
1960364S07096 1961 99 SI WA NOT_NAMED 1961-01-02 22:00:00 TS -16.4618 97.7683 1000 bom spur-merge 1352 1352 ______O_______ -1 -16.8000 97.8000 1000 7 7 155
1960364S07096 1961 99 SI WA NOT_NAMED 1961-01-03 00:00:00 TS -16.6765 97.8765 spur-merge 1363 1363 ______P_______ -1 -16.9412 97.9412 1000 7 12 158
1960364S07096 1961 99 SI WA NOT_NAMED 1961-01-03 01:00:00 NR -17.0000 98.0000 1000 bom spur-merge 1384 ______O_______ -1 -17.0000 98.0000 1000 7 21 160

About IBTrACS Database

This database is a web-friendly format of International Best Track Archive for Climate Stewardship (IBTrACS), a global best track data archive curated by NOAA dating back to 1842.

Updated: 2021-12-03